Time;durP1;ratioP1;P1;durP2;ratioP2;P2;SDS_P1;SDS_P2;PMS_P1;PMS_P2;Temp;Humidity;BMP_temperature;BMP_pressure;BME280_temperature;BME280_humidity;BME280_pressure;Samples;Min_cycle;Max_cycle;Signal;HPM_P1;HPM_P2
2023/12/08 00:00:07;;;;;;;13.25;6.43;;;;;;;-0.08;94.80;93952.09;5064471;28;20024;-73
2023/12/08 00:02:33;;;;;;;11.05;6.13;;;;;;;-0.03;94.94;93952.19;5064931;28;20029;-73
2023/12/08 00:04:59;;;;;;;13.48;7.03;;;;;;;0.02;94.45;93939.16;5064845;28;20200;-73
2023/12/08 00:07:24;;;;;;;10.55;6.88;;;;;;;0.04;94.36;93952.00;5064896;28;20071;-73
2023/12/08 00:09:50;;;;;;;14.23;6.15;;;;;;;0.04;94.15;93957.22;5063973;28;20327;-73
2023/12/08 00:12:15;;;;;;;14.63;6.93;;;;;;;0.01;93.70;93962.97;5064705;28;20032;-73
2023/12/08 00:14:41;;;;;;;12.70;6.45;;;;;;;-0.02;93.85;93956.38;5064654;28;20044;-74
2023/12/08 00:17:06;;;;;;;13.32;6.78;;;;;;;-0.09;94.03;93958.41;5063236;28;20037;-74
2023/12/08 00:19:32;;;;;;;12.48;6.45;;;;;;;-0.06;94.26;93957.91;5064395;28;20071;-75
2023/12/08 00:21:58;;;;;;;13.68;7.03;;;;;;;0.04;94.33;93970.34;5064468;28;20243;-73
2023/12/08 00:24:24;;;;;;;16.33;7.07;;;;;;;-0.06;93.96;93963.94;5063998;28;20231;-73
2023/12/08 00:26:49;;;;;;;12.70;7.00;;;;;;;-0.07;94.29;93966.81;5064073;28;20099;-73
2023/12/08 00:29:18;;;;;;;13.70;7.10;;;;;;;-0.04;94.19;93955.81;5064219;28;20035;-73
2023/12/08 00:31:43;;;;;;;10.95;6.00;;;;;;;-0.10;93.99;93960.22;5064213;28;20021;-73
2023/12/08 00:34:10;;;;;;;14.15;6.70;;;;;;;-0.04;94.17;93959.25;5064255;28;20040;-73
2023/12/08 00:36:35;;;;;;;11.98;6.00;;;;;;;-0.02;93.85;93951.13;5063935;28;20071;-73
2023/12/08 00:39:01;;;;;;;9.05;5.60;;;;;;;0.01;94.00;93958.53;5064074;28;20020;-73
2023/12/08 00:41:27;;;;;;;10.05;5.15;;;;;;;-0.06;93.56;93955.28;5064199;28;20066;-74
2023/12/08 00:43:53;;;;;;;12.90;6.97;;;;;;;-0.08;93.66;93960.78;5063959;28;20029;-74
2023/12/08 00:46:18;;;;;;;13.85;6.18;;;;;;;-0.09;93.19;93959.19;5064075;28;20028;-73
2023/12/08 00:48:44;;;;;;;24.42;11.18;;;;;;;-0.12;93.04;93948.38;5063985;28;20045;-74
2023/12/08 00:51:12;;;;;;;49.15;23.10;;;;;;;-0.17;93.22;93950.97;5063665;28;20071;-74
2023/12/08 00:53:38;;;;;;;46.63;23.33;;;;;;;-0.15;93.69;93948.91;5063543;28;20020;-74
2023/12/08 00:56:04;;;;;;;43.50;22.15;;;;;;;-0.17;93.31;93956.22;5063586;28;20087;-74
2023/12/08 00:58:29;;;;;;;37.42;18.75;;;;;;;-0.28;93.56;93956.09;5063784;28;20041;-73
2023/12/08 01:00:55;;;;;;;31.48;17.08;;;;;;;-0.25;93.47;93954.78;5063821;28;20327;-73
2023/12/08 01:03:20;;;;;;;25.52;13.27;;;;;;;-0.24;93.83;93959.78;5063401;28;20285;-74
2023/12/08 01:05:46;;;;;;;27.17;11.88;;;;;;;-0.22;93.81;93955.09;5063735;28;20040;-74
2023/12/08 01:08:11;;;;;;;19.83;9.90;;;;;;;-0.27;93.16;93965.50;5063527;28;20074;-74
2023/12/08 01:10:37;;;;;;;20.70;9.20;;;;;;;-0.34;92.21;93957.03;5063286;28;20231;-74
2023/12/08 01:13:02;;;;;;;15.90;8.25;;;;;;;-0.31;91.69;93956.53;5063062;28;20036;-74
2023/12/08 01:15:28;;;;;;;9.85;5.75;;;;;;;-0.43;91.37;93948.00;5063310;28;20027;-73
2023/12/08 01:17:53;;;;;;;13.90;7.38;;;;;;;-0.31;90.74;93961.78;5063017;28;20028;-74
2023/12/08 01:20:19;;;;;;;10.20;6.05;;;;;;;-0.34;90.91;93962.28;5063047;28;20025;-74
2023/12/08 01:22:44;;;;;;;10.98;5.95;;;;;;;-0.35;91.07;93959.91;5062797;28;20036;-75
2023/12/08 01:25:10;;;;;;;10.10;5.38;;;;;;;-0.39;90.97;93962.22;5063125;28;20082;-74
2023/12/08 01:27:35;;;;;;;11.77;6.85;;;;;;;-0.35;91.67;93949.44;5063309;28;20083;-73
2023/12/08 01:30:01;;;;;;;11.63;5.90;;;;;;;-0.34;91.92;93961.50;5063340;28;20020;-74
2023/12/08 01:32:26;;;;;;;10.48;5.72;;;;;;;-0.41;91.49;93961.66;5063507;28;20100;-74
2023/12/08 01:34:51;;;;;;;13.05;6.90;;;;;;;-0.35;91.71;93958.06;5063233;28;20023;-74
2023/12/08 01:37:17;;;;;;;13.23;6.47;;;;;;;-0.28;91.68;93955.28;5063184;28;20315;-74
2023/12/08 01:39:42;;;;;;;12.77;6.53;;;;;;;-0.22;91.80;93955.09;5062149;28;20379;-73
2023/12/08 01:42:08;;;;;;;15.20;6.88;;;;;;;-0.30;90.38;93962.59;5063118;28;20051;-74
2023/12/08 01:44:33;;;;;;;15.25;7.78;;;;;;;-0.27;90.04;93960.28;5063335;28;20108;-74
2023/12/08 01:46:59;;;;;;;10.70;6.72;;;;;;;-0.27;90.63;93959.47;5063258;28;20044;-73
2023/12/08 01:49:25;;;;;;;11.30;6.45;;;;;;;-0.25;90.53;93957.41;5062869;28;20369;-73
2023/12/08 01:51:50;;;;;;;11.93;5.30;;;;;;;-0.35;89.13;93952.03;5063197;28;20033;-75
2023/12/08 01:54:16;;;;;;;11.48;6.32;;;;;;;-0.32;89.34;93959.44;5062023;28;20040;-74
2023/12/08 01:56:42;;;;;;;12.90;6.28;;;;;;;-0.21;89.53;93953.28;5063107;28;20047;-75
2023/12/08 01:59:08;;;;;;;11.27;5.30;;;;;;;-0.24;89.59;93959.78;5062993;28;20025;-72
2023/12/08 02:01:34;;;;;;;10.60;4.82;;;;;;;-0.37;88.90;93954.13;5062874;28;20044;-70
2023/12/08 02:04:01;;;;;;;12.13;5.75;;;;;;;-0.30;89.46;93955.53;5063074;28;20043;-73
2023/12/08 02:06:27;;;;;;;11.15;6.68;;;;;;;-0.31;89.97;93951.31;5062980;28;20028;-72
2023/12/08 02:08:53;;;;;;;11.63;5.30;;;;;;;-0.28;90.43;93956.09;5062457;28;20266;-72
2023/12/08 02:11:19;;;;;;;10.98;5.78;;;;;;;-0.26;90.48;93951.38;5062832;28;20243;-72
2023/12/08 02:13:45;;;;;;;10.23;5.95;;;;;;;-0.29;90.11;93959.72;5062855;28;20013;-72
2023/12/08 02:16:19;;;;;;;10.40;6.13;;;;;;;-0.30;89.23;93967.84;5062649;28;20024;-72
2023/12/08 02:18:45;;;;;;;11.43;5.40;;;;;;;-0.28;90.32;93971.00;5062976;28;20323;-74
2023/12/08 02:21:14;;;;;;;9.40;5.60;;;;;;;-0.40;89.52;93968.50;5062765;28;20035;-72
2023/12/08 02:23:49;;;;;;;14.02;6.13;;;;;;;-0.43;89.29;93979.44;5062713;28;20029;-72
2023/12/08 02:26:16;;;;;;;12.90;6.20;;;;;;;-0.43;90.36;93976.81;5062967;28;20029;-72
2023/12/08 02:28:43;;;;;;;10.05;4.75;;;;;;;-0.36;90.81;93974.84;5062763;28;20029;-72
2023/12/08 02:31:13;;;;;;;9.23;5.32;;;;;;;-0.33;90.48;93973.56;5062723;28;20021;-72
2023/12/08 02:33:42;;;;;;;10.15;5.28;;;;;;;-0.27;89.15;93969.97;5065921;28;20093;-72
2023/12/08 02:36:09;;;;;;;10.57;5.32;;;;;;;-0.31;88.58;93974.09;5066335;28;20021;-73
2023/12/08 02:38:36;;;;;;;9.77;5.75;;;;;;;-0.25;89.22;93971.28;5066442;28;20023;-73
2023/12/08 02:41:01;;;;;;;12.40;6.45;;;;;;;-0.32;88.33;93969.91;5066292;28;20093;-73
2023/12/08 02:43:27;;;;;;;12.00;5.65;;;;;;;-0.28;88.13;93982.28;5066125;28;20021;-73
2023/12/08 02:45:53;;;;;;;11.70;5.75;;;;;;;-0.27;88.54;93972.59;5066058;28;20092;-73
2023/12/08 02:48:18;;;;;;;9.38;5.40;;;;;;;-0.26;87.97;93974.97;5065781;28;20207;-74
2023/12/08 02:50:44;;;;;;;11.15;5.45;;;;;;;-0.24;87.37;93972.91;5066160;28;20051;-73
2023/12/08 02:53:09;;;;;;;11.02;5.63;;;;;;;-0.24;88.12;93972.09;5066412;28;20013;-73
2023/12/08 02:55:35;;;;;;;12.63;5.25;;;;;;;-0.23;87.84;93974.47;5066242;28;20013;-73
2023/12/08 02:58:00;;;;;;;12.73;5.63;;;;;;;-0.27;88.15;93972.59;5065883;28;20335;-73
2023/12/08 03:00:26;;;;;;;8.20;4.80;;;;;;;-0.21;87.87;93972.41;5066189;28;20249;-74
2023/12/08 03:02:51;;;;;;;10.45;5.85;;;;;;;-0.22;87.75;93973.44;5065663;28;20021;-73
2023/12/08 03:05:17;;;;;;;9.73;5.50;;;;;;;-0.25;87.20;93975.75;5065878;28;20223;-73
2023/12/08 03:07:43;;;;;;;11.27;5.30;;;;;;;-0.30;87.06;93976.47;5065920;28;20021;-72
2023/12/08 03:10:08;;;;;;;10.18;5.35;;;;;;;-0.32;87.92;93972.53;5065875;28;20021;-73
2023/12/08 03:12:34;;;;;;;10.70;5.80;;;;;;;-0.33;87.67;93979.56;5065699;28;20040;-73
2023/12/08 03:14:59;;;;;;;10.13;5.18;;;;;;;-0.35;88.18;93979.03;5065944;28;20039;-73
2023/12/08 03:17:25;;;;;;;11.27;5.30;;;;;;;-0.36;88.80;93963.56;5065838;28;20021;-72
2023/12/08 03:19:50;;;;;;;10.20;5.72;;;;;;;-0.37;88.89;93959.34;5065923;28;20051;-72
2023/12/08 03:22:16;;;;;;;10.30;5.63;;;;;;;-0.38;89.34;93969.03;5065679;28;20202;-72
2023/12/08 03:24:41;;;;;;;9.82;5.47;;;;;;;-0.40;89.80;93968.50;5065591;28;20051;-72
2023/12/08 03:27:07;;;;;;;10.20;5.68;;;;;;;-0.31;90.18;93977.50;5065396;28;20021;-73
2023/12/08 03:29:32;;;;;;;10.57;5.20;;;;;;;-0.41;89.02;93977.38;5065563;28;20108;-73
2023/12/08 03:31:57;;;;;;;10.98;6.07;;;;;;;-0.42;88.61;93967.94;5065702;28;20040;-73
2023/12/08 03:34:23;;;;;;;8.35;5.03;;;;;;;-0.35;89.20;93967.75;5065400;28;20211;-73
2023/12/08 03:36:48;;;;;;;10.38;5.88;;;;;;;-0.36;89.51;93959.13;5065285;28;20323;-73
2023/12/08 03:39:14;;;;;;;9.93;5.97;;;;;;;-0.32;89.35;93964.66;5065072;28;20205;-73
2023/12/08 03:41:39;;;;;;;10.40;5.03;;;;;;;-0.38;88.34;93963.81;5065184;28;20040;-73
2023/12/08 03:44:04;;;;;;;8.63;4.90;;;;;;;-0.37;88.34;93957.53;5063960;28;20028;-73
2023/12/08 03:46:30;;;;;;;11.73;5.30;;;;;;;-0.33;88.80;93948.13;5064960;28;20059;-74
2023/12/08 03:48:55;;;;;;;9.57;4.97;;;;;;;-0.33;89.03;93950.75;5064910;28;20025;-74
2023/12/08 03:51:21;;;;;;;9.98;5.15;;;;;;;-0.31;88.91;93951.31;5065100;28;20032;-74
2023/12/08 03:53:46;;;;;;;9.48;5.10;;;;;;;-0.36;88.51;93943.41;5064869;28;20100;-73
2023/12/08 03:56:12;;;;;;;13.85;6.10;;;;;;;-0.35;87.58;93947.59;5064823;28;20078;-73
2023/12/08 03:58:37;;;;;;;9.15;5.53;;;;;;;-0.30;87.30;93947.66;5063526;28;20052;-73
2023/12/08 04:01:03;;;;;;;10.38;5.07;;;;;;;-0.32;87.63;93936.66;5064955;28;20017;-73
2023/12/08 04:03:28;;;;;;;10.90;5.25;;;;;;;-0.33;87.21;93937.66;5064773;28;20048;-72
2023/12/08 04:05:54;;;;;;;9.15;4.97;;;;;;;-0.34;87.61;93933.47;5064712;28;20024;-73
2023/12/08 04:08:19;;;;;;;7.82;4.10;;;;;;;-0.34;87.01;93932.69;5064605;28;20095;-72
2023/12/08 04:10:47;;;;;;;8.77;4.63;;;;;;;-0.32;86.89;93920.94;5064370;28;20116;-72
2023/12/08 04:13:12;;;;;;;9.60;5.18;;;;;;;-0.29;87.07;93928.28;5064673;28;20020;-72
2023/12/08 04:15:38;;;;;;;9.05;5.47;;;;;;;-0.37;86.16;93931.34;5064799;28;20029;-73
2023/12/08 04:18:04;;;;;;;7.38;4.70;;;;;;;-0.38;87.14;93924.53;5064641;28;20029;-73
2023/12/08 04:20:31;;;;;;;8.85;4.90;;;;;;;-0.35;87.48;93916.16;5064599;28;20028;-73
2023/12/08 04:22:56;;;;;;;8.55;4.68;;;;;;;-0.34;87.59;93917.75;5064740;28;20055;-72
2023/12/08 04:25:22;;;;;;;6.43;3.95;;;;;;;-0.36;86.43;93919.84;5064431;28;20088;-72
2023/12/08 04:27:47;;;;;;;8.18;4.82;;;;;;;-0.38;85.86;93918.50;5064542;28;20206;-72
2023/12/08 04:30:13;;;;;;;7.40;4.20;;;;;;;-0.36;86.21;93919.06;5063811;28;20032;-73
2023/12/08 04:32:38;;;;;;;7.22;4.40;;;;;;;-0.32;85.90;93925.38;5063750;28;20021;-72
2023/12/08 04:35:04;;;;;;;9.07;4.28;;;;;;;-0.31;86.22;93919.09;5063866;28;20373;-72
2023/12/08 04:37:29;;;;;;;7.15;4.03;;;;;;;-0.31;86.25;93924.34;5064026;28;20218;-73
2023/12/08 04:39:55;;;;;;;7.20;4.05;;;;;;;-0.33;85.44;93921.16;5064216;28;20425;-72
2023/12/08 04:42:20;;;;;;;7.68;3.95;;;;;;;-0.31;85.31;93927.75;5063919;28;20078;-73
2023/12/08 04:44:46;;;;;;;8.82;4.60;;;;;;;-0.26;86.13;93937.50;5064079;28;20025;-73
2023/12/08 04:47:11;;;;;;;7.70;4.28;;;;;;;-0.27;86.64;93935.91;5064149;28;20084;-73
2023/12/08 04:49:37;;;;;;;8.32;4.97;;;;;;;-0.20;86.26;93939.16;5064109;28;20032;-73
2023/12/08 04:52:03;;;;;;;10.00;4.22;;;;;;;-0.22;86.21;93944.63;5063860;28;20377;-73
2023/12/08 04:54:28;;;;;;;8.23;4.53;;;;;;;-0.22;86.12;93949.88;5062638;28;20028;-73
2023/12/08 04:56:54;;;;;;;9.60;4.40;;;;;;;-0.17;85.32;93951.75;5063325;28;20335;-74
2023/12/08 04:59:20;;;;;;;8.15;3.67;;;;;;;-0.20;85.57;93952.25;5063759;28;20335;-74
2023/12/08 05:01:50;;;;;;;6.78;4.15;;;;;;;-0.17;86.18;93943.09;5062216;28;20062;-74
2023/12/08 05:04:17;;;;;;;7.63;4.30;;;;;;;-0.16;85.76;93949.91;5063511;28;20029;-74
2023/12/08 05:06:43;;;;;;;8.15;4.07;;;;;;;-0.17;85.19;93945.72;5063474;28;20052;-74
2023/12/08 05:09:10;;;;;;;7.13;4.10;;;;;;;-0.18;85.67;93950.19;5063608;28;20029;-74
2023/12/08 05:11:36;;;;;;;7.15;4.13;;;;;;;-0.25;85.17;93950.34;5063395;28;20130;-74
2023/12/08 05:14:02;;;;;;;8.35;4.38;;;;;;;-0.25;85.12;93952.97;5063388;28;20211;-74
2023/12/08 05:16:28;;;;;;;9.75;4.97;;;;;;;-0.25;85.97;93960.03;5063492;28;20029;-75
2023/12/08 05:18:54;;;;;;;7.88;4.53;;;;;;;-0.30;86.02;93960.78;5063108;28;20020;-74
2023/12/08 05:21:19;;;;;;;8.57;4.43;;;;;;;-0.23;86.85;93958.75;5063274;28;20426;-74
2023/12/08 05:23:45;;;;;;;7.30;3.90;;;;;;;-0.17;86.81;93958.81;5063396;28;20334;-74
2023/12/08 05:26:11;;;;;;;8.60;4.82;;;;;;;-0.11;86.31;93960.47;5063176;28;20031;-74
2023/12/08 05:28:36;;;;;;;7.75;4.75;;;;;;;-0.10;85.87;93959.41;5063494;28;20048;-74
2023/12/08 05:31:04;;;;;;;11.80;4.68;;;;;;;-0.03;86.61;93957.41;5063428;28;20239;-74
2023/12/08 05:33:29;;;;;;;6.78;4.07;;;;;;;-0.07;85.69;93962.34;5063570;28;20024;-74
2023/12/08 05:35:55;;;;;;;7.78;4.53;;;;;;;-0.06;85.86;93957.91;5063381;28;20028;-74
2023/12/08 05:38:21;;;;;;;8.90;4.57;;;;;;;-0.10;85.90;93962.03;5063173;28;20052;-74
2023/12/08 05:40:46;;;;;;;10.88;4.70;;;;;;;-0.01;86.44;93965.84;5063243;28;20263;-73
2023/12/08 05:43:12;;;;;;;9.98;4.80;;;;;;;-0.01;86.46;93966.63;5063271;28;20032;-77
2023/12/08 05:45:37;;;;;;;8.80;4.70;;;;;;;0.03;86.59;93969.56;5063221;28;20024;-77
2023/12/08 05:48:03;;;;;;;9.35;4.20;;;;;;;0.08;86.47;93969.63;5063116;28;20082;-77
2023/12/08 05:50:28;;;;;;;10.73;4.97;;;;;;;0.12;87.45;93973.34;5063293;28;20257;-77
2023/12/08 05:52:54;;;;;;;7.60;4.30;;;;;;;0.07;86.53;93975.09;5061841;28;20021;-78
2023/12/08 05:55:19;;;;;;;7.78;4.18;;;;;;;0.10;86.91;93977.22;5063120;28;20401;-77
2023/12/08 05:57:45;;;;;;;7.50;4.07;;;;;;;0.06;86.73;93971.69;5063118;28;20051;-75
2023/12/08 06:00:11;;;;;;;8.90;4.63;;;;;;;0.03;85.62;93977.41;5063008;28;20066;-79
2023/12/08 06:02:36;;;;;;;6.32;3.70;;;;;;;-0.04;85.85;93980.22;5062815;28;20032;-77
2023/12/08 06:05:02;;;;;;;6.82;3.65;;;;;;;-0.03;85.96;93988.88;5062463;28;20031;-77
2023/12/08 06:07:27;;;;;;;7.35;3.30;;;;;;;-0.13;84.67;93983.50;5063012;28;20024;-75
2023/12/08 06:09:53;;;;;;;7.82;4.50;;;;;;;-0.07;85.17;93985.94;5064997;28;20035;-76
2023/12/08 06:12:18;;;;;;;7.05;3.75;;;;;;;-0.09;84.82;93989.84;5065749;28;20025;-76
2023/12/08 06:14:44;;;;;;;5.45;2.92;;;;;;;-0.05;84.78;93983.06;5065240;28;20029;-76
2023/12/08 06:17:09;;;;;;;7.65;4.05;;;;;;;0.00;83.71;93991.00;5066809;28;20028;-76
2023/12/08 06:19:34;;;;;;;6.80;4.05;;;;;;;-0.01;84.78;93992.03;5067009;28;20032;-76
2023/12/08 06:22:00;;;;;;;7.50;4.28;;;;;;;0.00;83.75;93988.41;5066227;28;20024;-76
2023/12/08 06:24:25;;;;;;;9.57;4.63;;;;;;;0.02;84.51;93985.50;5065307;28;20051;-76
2023/12/08 06:26:51;;;;;;;8.90;4.88;;;;;;;0.07;84.84;93994.22;5065673;28;20031;-77
2023/12/08 06:29:17;;;;;;;8.27;4.50;;;;;;;0.07;84.58;94003.94;5065557;28;20021;-77
2023/12/08 06:31:46;;;;;;;9.27;4.63;;;;;;;0.12;85.34;94011.84;5065369;28;20346;-77
2023/12/08 06:34:11;;;;;;;10.38;4.20;;;;;;;0.04;83.72;93996.53;5065575;28;20090;-76
2023/12/08 06:36:44;;;;;;;8.50;4.22;;;;;;;0.05;85.00;93998.13;5065493;28;20024;-77
2023/12/08 06:39:12;;;;;;;8.20;4.45;;;;;;;0.10;84.15;93999.00;5066593;28;20013;-77
2023/12/08 06:41:37;;;;;;;8.30;3.80;;;;;;;0.09;84.66;93997.41;5066250;28;20029;-76
2023/12/08 06:44:03;;;;;;;7.05;3.70;;;;;;;-0.01;84.22;94007.75;5066523;28;20083;-77
2023/12/08 06:46:28;;;;;;;8.25;4.25;;;;;;;-0.02;84.34;94008.78;5066424;28;20338;-77
2023/12/08 06:48:53;;;;;;;8.60;4.55;;;;;;;0.02;84.90;94007.28;5065159;28;20021;-76
2023/12/08 06:51:19;;;;;;;7.13;4.03;;;;;;;0.05;83.81;94006.00;5066108;28;20029;-77
2023/12/08 06:53:45;;;;;;;7.45;4.15;;;;;;;0.03;84.60;94011.47;5066322;28;20021;-77
2023/12/08 06:56:10;;;;;;;9.57;4.65;;;;;;;0.01;85.03;94005.69;5065789;28;20017;-77
2023/12/08 06:58:36;;;;;;;8.18;4.22;;;;;;;0.01;85.03;94015.38;5065898;28;20347;-77
2023/12/08 07:01:01;;;;;;;8.00;4.25;;;;;;;0.01;84.10;94015.38;5065884;28;20052;-77
2023/12/08 07:03:27;;;;;;;9.55;4.38;;;;;;;-0.04;84.47;94014.28;5066092;28;20025;-77
2023/12/08 07:05:52;;;;;;;7.60;4.80;;;;;;;-0.07;84.93;94011.34;5065960;28;20020;-77
2023/12/08 07:08:18;;;;;;;7.15;4.10;;;;;;;-0.06;85.70;94015.53;5065992;28;20119;-77
2023/12/08 07:10:43;;;;;;;8.02;4.22;;;;;;;-0.06;85.79;94005.06;5065663;28;20029;-77
2023/12/08 07:13:09;;;;;;;10.35;5.30;;;;;;;-0.03;86.01;94013.25;5065887;28;20084;-76
2023/12/08 07:15:34;;;;;;;8.23;4.55;;;;;;;0.02;86.39;94011.72;5065899;28;20342;-77
2023/12/08 07:18:00;;;;;;;9.20;5.15;;;;;;;-0.06;85.09;94020.78;5065744;28;20020;-77
2023/12/08 07:20:25;;;;;;;8.70;4.95;;;;;;;-0.03;85.23;94015.06;5065908;28;20025;-77
2023/12/08 07:22:50;;;;;;;9.25;4.72;;;;;;;-0.08;85.48;94015.81;5065497;28;20025;-77
2023/12/08 07:25:16;;;;;;;9.98;4.88;;;;;;;-0.06;85.70;94018.16;5065606;28;20025;-77
2023/12/08 07:27:42;;;;;;;8.13;4.22;;;;;;;-0.02;86.50;94014.03;5065524;28;20095;-77
2023/12/08 07:30:09;;;;;;;8.13;4.90;;;;;;;0.07;86.69;94023.06;5065356;28;20354;-77
2023/12/08 07:32:34;;;;;;;8.68;4.55;;;;;;;0.09;86.04;94018.38;5065161;28;20028;-77
2023/12/08 07:35:00;;;;;;;7.25;4.28;;;;;;;0.05;85.26;94011.25;5065443;28;20091;-77
2023/12/08 07:37:25;;;;;;;9.15;4.95;;;;;;;0.08;85.43;94016.81;5065539;28;20097;-77
2023/12/08 07:39:51;;;;;;;8.73;4.35;;;;;;;0.02;86.03;94020.38;5064836;28;20191;-76
2023/12/08 07:42:16;;;;;;;9.77;4.53;;;;;;;-0.11;85.74;94020.72;5065046;28;20327;-77
2023/12/08 07:44:41;;;;;;;9.23;4.72;;;;;;;-0.04;86.38;94018.72;5065046;28;20345;-78
2023/12/08 07:47:08;;;;;;;10.30;5.82;;;;;;;-0.07;86.46;94020.00;5065346;28;20025;-78
2023/12/08 07:49:33;;;;;;;11.25;5.55;;;;;;;-0.11;86.43;94033.84;5065095;28;20084;-78
2023/12/08 07:51:59;;;;;;;11.77;5.25;;;;;;;-0.07;87.01;94030.47;5065199;28;20047;-79
2023/12/08 07:54:26;;;;;;;8.55;5.18;;;;;;;-0.04;87.34;94026.56;5064821;28;20029;-75
2023/12/08 07:56:52;;;;;;;9.25;5.43;;;;;;;-0.11;86.39;94029.38;5063251;28;20094;-77
2023/12/08 07:59:17;;;;;;;8.65;4.88;;;;;;;-0.10;86.27;94030.97;5064547;28;20311;-76
2023/12/08 08:01:42;;;;;;;11.55;5.88;;;;;;;-0.06;86.50;94018.16;5064540;28;20196;-77
2023/12/08 08:04:08;;;;;;;7.97;4.13;;;;;;;-0.13;85.90;94030.66;5064651;28;20300;-77
2023/12/08 08:06:33;;;;;;;10.05;5.57;;;;;;;-0.03;85.97;94022.94;5064823;28;20029;-76
2023/12/08 08:08:59;;;;;;;9.48;4.22;;;;;;;-0.03;85.52;94026.34;5064676;28;20291;-77
2023/12/08 08:11:24;;;;;;;9.45;4.60;;;;;;;-0.06;85.58;94023.41;5064796;28;20029;-77
2023/12/08 08:13:50;;;;;;;11.38;5.68;;;;;;;0.01;84.76;94018.78;5064465;28;20032;-77
2023/12/08 08:16:15;;;;;;;8.63;4.55;;;;;;;0.03;84.04;94014.09;5064549;28;20253;-77
2023/12/08 08:18:41;;;;;;;9.27;4.80;;;;;;;-0.01;83.87;94013.00;5064624;28;20039;-77
2023/12/08 08:21:06;;;;;;;8.00;4.35;;;;;;;-0.02;84.37;94003.53;5064613;28;20025;-76
2023/12/08 08:23:33;;;;;;;9.10;4.60;;;;;;;-0.03;84.09;94010.63;5063987;28;20025;-76
2023/12/08 08:25:58;;;;;;;9.93;5.20;;;;;;;-0.06;84.70;93994.59;5064204;28;20095;-77
2023/12/08 08:28:24;;;;;;;8.07;4.72;;;;;;;-0.06;85.36;93998.00;5064358;28;20307;-76
2023/12/08 08:30:49;;;;;;;9.63;4.55;;;;;;;0.01;86.05;93989.19;5063911;28;20088;-77
2023/12/08 08:33:15;;;;;;;9.48;4.75;;;;;;;0.07;85.08;93996.06;5064279;28;20017;-77
2023/12/08 08:35:40;;;;;;;6.97;4.07;;;;;;;0.04;84.67;93989.50;5064107;28;20223;-77
2023/12/08 08:38:06;;;;;;;7.57;4.00;;;;;;;0.05;84.51;93991.06;5063930;28;20082;-76
2023/12/08 08:40:32;;;;;;;10.57;5.15;;;;;;;0.10;84.68;93983.28;5062966;28;20072;-77
2023/12/08 08:42:58;;;;;;;10.23;4.72;;;;;;;0.18;84.68;93977.59;5064114;28;20028;-76
2023/12/08 08:45:23;;;;;;;9.80;5.05;;;;;;;0.25;83.87;93982.66;5064064;28;20377;-77
2023/12/08 08:47:49;;;;;;;14.23;4.93;;;;;;;0.29;84.09;93975.09;5064020;28;20020;-77
2023/12/08 08:50:14;;;;;;;10.40;4.80;;;;;;;0.33;84.08;93978.81;5063994;28;20223;-77
2023/12/08 08:52:40;;;;;;;9.68;5.07;;;;;;;0.36;83.83;93984.31;5063927;28;20078;-76
2023/12/08 08:55:06;;;;;;;9.93;5.05;;;;;;;0.47;84.13;93982.63;5063546;28;20282;-77
2023/12/08 08:57:31;;;;;;;9.13;4.95;;;;;;;0.40;82.64;93974.16;5063389;28;20103;-77
2023/12/08 08:59:59;;;;;;;13.20;5.28;;;;;;;0.43;83.17;93967.59;5063573;28;20040;-76
2023/12/08 09:02:25;;;;;;;8.93;4.57;;;;;;;0.46;82.62;93980.25;5063311;28;20017;-77
2023/12/08 09:04:50;;;;;;;8.60;4.30;;;;;;;0.52;82.28;93958.28;5063224;28;20036;-77
2023/12/08 09:07:16;;;;;;;8.32;4.13;;;;;;;0.54;81.99;93966.69;5061946;28;20054;-76
2023/12/08 09:09:41;;;;;;;6.43;3.75;;;;;;;0.56;81.21;93962.78;5061999;28;20029;-77
2023/12/08 09:12:07;;;;;;;8.48;4.07;;;;;;;0.62;81.11;93957.59;5063759;28;20085;-76
2023/12/08 09:14:33;;;;;;;6.40;3.45;;;;;;;0.65;80.19;93957.06;5063505;28;20088;-76
2023/12/08 09:17:02;;;;;;;8.52;4.53;;;;;;;0.60;80.86;93961.22;5063729;28;20029;-76
2023/12/08 09:19:28;;;;;;;7.30;3.78;;;;;;;0.63;80.85;93962.56;5063583;28;20043;-76
2023/12/08 09:21:54;;;;;;;9.88;5.22;;;;;;;0.65;81.32;93944.75;5063146;28;20243;-76
2023/12/08 09:24:19;;;;;;;9.23;5.10;;;;;;;0.63;80.34;93959.16;5062989;28;20025;-76
2023/12/08 09:26:44;;;;;;;8.35;3.88;;;;;;;0.73;81.36;93943.50;5063225;28;20020;-76
2023/12/08 09:29:10;;;;;;;7.95;4.55;;;;;;;0.82;81.77;93941.25;5062891;28;20028;-76
2023/12/08 09:31:35;;;;;;;7.70;4.20;;;;;;;0.90;79.29;93940.78;5063252;28;20097;-77
2023/12/08 09:34:01;;;;;;;7.90;4.43;;;;;;;0.92;79.14;93936.84;5062974;28;20080;-76
2023/12/08 09:36:26;;;;;;;7.90;4.63;;;;;;;1.03;79.77;93934.31;5063122;28;20024;-76
2023/12/08 09:38:52;;;;;;;9.02;4.68;;;;;;;1.12;79.08;93936.22;5062924;28;20078;-76
2023/12/08 09:41:18;;;;;;;9.32;4.90;;;;;;;1.14;77.74;93941.19;5062227;28;20071;-76
2023/12/08 09:44:05;;;;;;;8.75;4.63;;;;;;;1.14;78.07;93926.25;5062472;28;20049;-76
2023/12/08 09:46:32;;;;;;;6.80;4.10;;;;;;;1.12;76.82;93920.47;5063032;28;20070;-76
2023/12/08 09:49:01;;;;;;;8.43;4.18;;;;;;;1.11;76.75;93929.38;5063194;28;20039;-75
2023/12/08 09:51:28;;;;;;;11.60;5.15;;;;;;;1.14;77.35;93933.31;5063270;28;20017;-76
2023/12/08 09:53:53;;;;;;;8.73;4.60;;;;;;;1.11;76.48;93928.59;5062961;28;20072;-76
2023/12/08 09:56:21;;;;;;;7.82;4.05;;;;;;;1.15;75.59;93929.66;5061680;28;20021;-76
2023/12/08 09:58:47;;;;;;;7.82;4.32;;;;;;;1.20;76.11;93921.81;5062757;28;20330;-77
2023/12/08 10:01:13;;;;;;;8.38;4.47;;;;;;;1.21;76.73;93912.91;5063143;28;20024;-76
2023/12/08 10:03:43;;;;;;;15.13;4.95;;;;;;;1.20;77.79;93913.94;5062636;28;20048;-76
2023/12/08 10:06:09;;;;;;;9.38;4.90;;;;;;;1.23;77.91;93917.91;5062605;28;20032;-76
2023/12/08 10:08:36;;;;;;;11.38;4.70;;;;;;;1.17;78.10;93902.13;5062813;28;20330;-76
2023/12/08 10:11:02;;;;;;;9.65;4.95;;;;;;;1.12;77.89;93903.91;5061781;28;20368;-76
2023/12/08 10:13:28;;;;;;;8.77;4.47;;;;;;;1.10;77.31;93903.38;5063092;28;20028;-76
2023/12/08 10:15:55;;;;;;;8.20;3.92;;;;;;;1.22;77.80;93892.69;5062969;28;20028;-76
2023/12/08 10:18:24;;;;;;;8.77;4.80;;;;;;;1.25;78.40;93892.97;5062587;28;20028;-76
2023/12/08 10:20:51;;;;;;;8.27;4.45;;;;;;;1.34;78.34;93890.66;5062786;28;20323;-76
2023/12/08 10:23:23;;;;;;;9.20;5.63;;;;;;;1.44;78.42;93890.72;5062791;28;20070;-75
2023/12/08 10:25:48;;;;;;;10.13;4.78;;;;;;;1.42;77.45;93895.41;5062668;28;20037;-75
2023/12/08 10:28:14;;;;;;;7.75;4.38;;;;;;;1.33;76.27;93889.88;5062945;28;20028;-76
2023/12/08 10:30:51;;;;;;;6.88;4.00;;;;;;;1.31;77.81;93891.97;5062829;28;20211;-76
2023/12/08 10:33:20;;;;;;;7.65;4.18;;;;;;;1.15;77.87;93888.44;5062835;28;20024;-76
2023/12/08 10:35:47;;;;;;;7.30;4.28;;;;;;;1.15;78.43;93892.91;5062523;28;20025;-76
2023/12/08 10:38:13;;;;;;;9.00;4.57;;;;;;;1.05;78.31;93877.88;5062574;28;20037;-76
2023/12/08 10:40:45;;;;;;;7.80;4.75;;;;;;;1.06;78.99;93889.16;5062721;28;20036;-76
2023/12/08 10:43:11;;;;;;;11.65;5.50;;;;;;;1.07;79.77;93875.78;5062712;28;20036;-76
2023/12/08 10:45:36;;;;;;;9.20;4.70;;;;;;;1.08;78.34;93881.81;5062596;28;20327;-76
2023/12/08 10:48:03;;;;;;;8.50;4.53;;;;;;;1.20;78.06;93885.06;5062706;28;20339;-75
2023/12/08 10:50:30;;;;;;;10.55;4.72;;;;;;;1.19;78.63;93888.75;5062783;28;20021;-75
2023/12/08 10:52:57;;;;;;;11.27;5.47;;;;;;;1.16;78.45;93878.72;5062475;28;20027;-76
2023/12/08 10:55:22;;;;;;;10.40;4.97;;;;;;;1.13;78.09;93874.78;5066210;28;20021;-75
2023/12/08 10:57:52;;;;;;;10.35;4.88;;;;;;;1.11;78.22;93876.09;5065905;28;20041;-76
2023/12/08 11:00:19;;;;;;;8.98;5.15;;;;;;;1.09;79.23;93872.94;5065993;28;20025;-75
2023/12/08 11:02:50;;;;;;;13.18;5.63;;;;;;;1.09;78.88;93870.31;5064563;28;20228;-77
2023/12/08 11:05:30;;;;;;;8.73;5.15;;;;;;;1.07;79.47;93870.53;5065565;28;20021;-76
2023/12/08 11:07:58;;;;;;;9.20;4.93;;;;;;;1.07;80.17;93867.13;5066068;28;20032;-76
2023/12/08 11:10:28;;;;;;;9.40;4.95;;;;;;;1.05;80.55;93869.22;5065570;28;20032;-76
2023/12/08 11:12:59;;;;;;;11.52;5.75;;;;;;;1.15;81.32;93872.69;5064343;28;20047;-76
2023/12/08 11:15:29;;;;;;;13.23;5.80;;;;;;;1.10;80.30;93864.00;5065496;28;20017;-77
2023/12/08 11:18:04;;;;;;;11.25;5.93;;;;;;;1.14;80.50;93857.19;5065626;28;20032;-76
2023/12/08 11:20:30;;;;;;;10.82;5.95;;;;;;;1.22;80.90;93861.97;5065638;28;20025;-76
2023/12/08 11:22:56;;;;;;;12.63;5.88;;;;;;;1.20;80.11;93859.59;5065860;28;20087;-76
2023/12/08 11:25:30;;;;;;;8.80;5.25;;;;;;;1.28;80.90;93857.53;5065627;28;20388;-76
2023/12/08 11:28:27;;;;;;;8.80;4.43;;;;;;;1.22;80.30;93855.94;5065768;28;20028;-76